Ontario, Ohio
Current Conditions -  °F | °C
As of 7:52 PM on Wednesday 22 Oct 2014 (Local Time) from KMFD Reporting Station
Overcast Overcast  
Wind Chill: 45°   Ceiling: 3300
Heat Index: 48°   Visibility: 10mi
Dew Point: 42°   Wind: 6mph
Humidity: 80%   Direction: 330°NNW
Pressure: 30.25"   Gusts: NA
Location:  40.76°N, 82.59°W
Report Text: KMFD 222352Z 33005KT 10SM OVC033 09/06 A3025 RMK AO2 SLP248 T00890056 10100 20083 58001
Loading
Personal Weather Stations






























Interactive Weather Map
Tropical Storm Tracking
New forecast layout! Learn more

10-Day Weather Forecast

Advertisements
Track Severe Weather on mobile